Time;durP1;ratioP1;P1;durP2;ratioP2;P2;SDS_P1;SDS_P2;PMS_P1;PMS_P2;Temp;Humidity;BMP_temperature;BMP_pressure;BME280_temperature;BME280_humidity;BME280_pressure;Samples;Min_cycle;Max_cycle;Signal;HPM_P1;HPM_P2
2022/07/21 00:01:10;;;;;;;14.68;9.40;;;;;;;;;;5028841;28;20430;-63
2022/07/21 00:03:36;;;;;;;13.45;9.23;;;;;;;;;;5030477;28;20053;-64
2022/07/21 00:06:02;;;;;;;13.57;8.88;;;;;;;;;;5032759;28;20037;-64
2022/07/21 00:08:28;;;;;;;14.48;9.55;;;;;;;;;;5012225;28;20373;-63
2022/07/21 00:10:54;;;;;;;14.38;9.98;;;;;;;;;;5015219;28;20068;-64
2022/07/21 00:13:20;;;;;;;13.15;8.93;;;;;;;;;;5041824;28;20124;-63
2022/07/21 00:15:47;;;;;;;14.75;9.32;;;;;;;;;;5030492;28;20582;-64
2022/07/21 00:18:13;;;;;;;16.15;10.40;;;;;;;;;;5030205;28;20553;-63
2022/07/21 00:20:39;;;;;;;16.27;10.05;;;;;;;;;;5032153;28;20092;-63
2022/07/21 00:23:05;;;;;;;17.50;10.38;;;;;;;;;;5034124;28;20128;-64
2022/07/21 00:25:32;;;;;;;15.10;9.90;;;;;;;;;;5014118;28;20400;-64
2022/07/21 00:27:58;;;;;;;15.95;10.18;;;;;;;;;;5028101;28;20073;-63
2022/07/21 00:30:24;;;;;;;13.63;10.27;;;;;;;;;;5012903;28;20045;-63
2022/07/21 00:32:50;;;;;;;17.40;10.25;;;;;;;;;;5032078;28;20060;-64
2022/07/21 00:35:16;;;;;;;16.48;10.95;;;;;;;;;;5031225;28;20049;-63
2022/07/21 00:37:42;;;;;;;17.10;10.48;;;;;;;;;;5033155;28;20068;-63
2022/07/21 00:40:09;;;;;;;16.83;10.25;;;;;;;;;;5025854;28;20489;-63
2022/07/21 00:42:36;;;;;;;21.90;11.57;;;;;;;;;;5018430;28;20037;-64
2022/07/21 00:45:03;;;;;;;17.92;11.18;;;;;;;;;;5029191;28;20065;-63
2022/07/21 00:47:30;;;;;;;16.50;11.45;;;;;;;;;;5026671;28;20075;-63
2022/07/21 00:49:56;;;;;;;17.65;10.93;;;;;;;;;;5030093;28;20160;-63
2022/07/21 00:52:23;;;;;;;16.10;10.15;;;;;;;;;;5015120;28;20391;-64
2022/07/21 00:54:49;;;;;;;17.75;11.57;;;;;;;;;;5039789;28;20042;-63
2022/07/21 00:57:15;;;;;;;19.83;10.82;;;;;;;;;;5029981;28;20487;-63
2022/07/21 00:59:42;;;;;;;16.95;10.95;;;;;;;;;;5027903;28;20042;-63
2022/07/21 01:02:08;;;;;;;22.00;12.05;;;;;;;;;;5027964;28;20047;-64
2022/07/21 01:04:34;;;;;;;15.85;10.23;;;;;;;;;;5028916;28;20193;-63
2022/07/21 01:07:01;;;;;;;20.20;11.50;;;;;;;;;;5026022;28;20152;-63
2022/07/21 01:09:27;;;;;;;17.00;10.95;;;;;;;;;;5026032;28;20389;-64
2022/07/21 01:11:53;;;;;;;16.48;11.13;;;;;;;;;;5026729;28;20042;-63
2022/07/21 01:14:20;;;;;;;22.00;12.27;;;;;;;;;;5026093;28;20040;-63
2022/07/21 01:16:46;;;;;;;19.58;11.65;;;;;;;;;;5025442;28;20534;-63
2022/07/21 01:19:12;;;;;;;16.38;12.43;;;;;;;;;;5029384;28;20052;-64
2022/07/21 01:21:42;;;;;;;18.48;12.35;;;;;;;;;;5031749;28;20051;-63
2022/07/21 01:24:09;;;;;;;17.35;11.90;;;;;;;;;;5033413;28;20038;-63
2022/07/21 01:26:45;;;;;;;17.88;11.75;;;;;;;;;;5027349;28;20039;-63
2022/07/21 01:29:12;;;;;;;19.40;12.88;;;;;;;;;;5026943;28;20037;-63
2022/07/21 01:31:38;;;;;;;17.25;11.48;;;;;;;;;;5033994;28;20043;-63
2022/07/21 01:34:05;;;;;;;21.58;12.98;;;;;;;;;;5035205;28;20037;-63
2022/07/21 01:36:31;;;;;;;18.83;12.63;;;;;;;;;;5027274;28;20297;-63
2022/07/21 01:41:53;;;;;;;20.70;13.45;;;;;;;;;;4970482;28;20460;-63
2022/07/21 01:44:19;;;;;;;18.77;12.65;;;;;;;;;;5028168;28;20041;-64
2022/07/21 01:46:46;;;;;;;20.77;12.60;;;;;;;;;;5026009;28;20480;-63
2022/07/21 01:49:14;;;;;;;21.58;13.18;;;;;;;;;;5024597;28;20052;-63
2022/07/21 01:51:40;;;;;;;18.98;12.90;;;;;;;;;;5029775;28;20041;-63
2022/07/21 01:54:06;;;;;;;19.05;12.98;;;;;;;;;;5028076;28;20051;-64
2022/07/21 01:56:33;;;;;;;19.45;13.88;;;;;;;;;;5030286;28;20034;-64
2022/07/21 01:58:59;;;;;;;20.33;12.98;;;;;;;;;;5027266;28;20128;-63
2022/07/21 02:01:26;;;;;;;21.23;13.65;;;;;;;;;;5010275;28;20057;-64
2022/07/21 02:03:53;;;;;;;16.73;12.23;;;;;;;;;;5018340;28;20438;-64
2022/07/21 02:06:19;;;;;;;19.55;12.52;;;;;;;;;;5025466;28;20033;-64
2022/07/21 02:08:45;;;;;;;20.65;13.32;;;;;;;;;;5023560;28;20136;-64
2022/07/21 02:11:12;;;;;;;17.38;13.18;;;;;;;;;;5026955;28;20033;-63
2022/07/21 02:13:38;;;;;;;15.75;12.27;;;;;;;;;;5022386;28;20087;-63
2022/07/21 02:16:04;;;;;;;16.90;12.02;;;;;;;;;;5028963;28;20033;-64
2022/07/21 02:18:31;;;;;;;14.98;11.75;;;;;;;;;;5027663;28;21193;-64
2022/07/21 02:20:57;;;;;;;18.92;12.02;;;;;;;;;;5010718;28;20045;-64
2022/07/21 02:23:23;;;;;;;18.15;12.45;;;;;;;;;;5012514;28;20048;-64
2022/07/21 02:25:50;;;;;;;18.27;12.57;;;;;;;;;;5027829;28;20392;-64
2022/07/21 02:28:16;;;;;;;16.00;12.10;;;;;;;;;;5027015;28;20129;-64
2022/07/21 02:30:42;;;;;;;14.15;11.07;;;;;;;;;;5029607;28;20033;-64
2022/07/21 02:33:08;;;;;;;15.65;11.55;;;;;;;;;;5040889;22;20065;-65
2022/07/21 02:35:34;;;;;;;16.73;12.18;;;;;;;;;;5042674;28;20067;-66
2022/07/21 02:38:00;;;;;;;14.40;11.43;;;;;;;;;;5050110;28;20037;-65
2022/07/21 02:40:27;;;;;;;16.00;11.98;;;;;;;;;;5049078;28;20041;-66
2022/07/21 02:42:53;;;;;;;16.30;11.85;;;;;;;;;;5039027;28;20044;-66
2022/07/21 02:45:18;;;;;;;14.88;11.60;;;;;;;;;;5030517;28;20113;-66
2022/07/21 02:47:49;;;;;;;13.65;10.75;;;;;;;;;;5044113;28;20867;-65
2022/07/21 02:50:15;;;;;;;16.38;10.68;;;;;;;;;;5040523;28;20037;-66
2022/07/21 02:52:41;;;;;;;14.55;10.45;;;;;;;;;;5035112;28;20045;-66
2022/07/21 02:55:08;;;;;;;12.40;9.57;;;;;;;;;;5029293;28;20380;-66
2022/07/21 02:57:34;;;;;;;13.02;9.88;;;;;;;;;;5033312;28;20486;-66
2022/07/21 03:00:00;;;;;;;13.48;10.40;;;;;;;;;;5029582;28;20495;-65
2022/07/21 03:02:26;;;;;;;13.02;9.95;;;;;;;;;;5030243;28;20045;-65
2022/07/21 03:04:52;;;;;;;13.40;9.68;;;;;;;;;;5029996;28;20033;-66
2022/07/21 03:07:18;;;;;;;11.98;10.02;;;;;;;;;;5036673;28;20041;-65
2022/07/21 03:09:44;;;;;;;13.02;9.23;;;;;;;;;;5029450;28;20045;-66
2022/07/21 03:12:10;;;;;;;11.90;10.02;;;;;;;;;;5030507;28;20037;-65
2022/07/21 03:14:36;;;;;;;14.48;10.40;;;;;;;;;;5027917;28;20160;-66
2022/07/21 03:17:02;;;;;;;13.32;9.70;;;;;;;;;;5016246;28;20033;-66
2022/07/21 03:19:28;;;;;;;12.05;9.50;;;;;;;;;;5023494;28;20069;-65
2022/07/21 03:21:54;;;;;;;13.35;10.13;;;;;;;;;;5027159;28;20079;-66
2022/07/21 03:24:20;;;;;;;15.10;10.82;;;;;;;;;;5027962;28;20140;-66
2022/07/21 03:26:46;;;;;;;13.48;10.73;;;;;;;;;;5033918;28;20121;-65
2022/07/21 03:29:12;;;;;;;14.85;10.90;;;;;;;;;;5042994;28;20112;-66
2022/07/21 03:31:38;;;;;;;14.73;11.50;;;;;;;;;;5036629;28;20087;-66
2022/07/21 03:34:04;;;;;;;13.75;11.32;;;;;;;;;;5039506;28;20044;-66
2022/07/21 03:36:30;;;;;;;14.32;11.00;;;;;;;;;;5014512;28;20049;-66
2022/07/21 03:38:56;;;;;;;16.33;12.20;;;;;;;;;;5028065;28;20057;-66
2022/07/21 03:41:22;;;;;;;15.27;12.52;;;;;;;;;;5032595;28;20103;-66
2022/07/21 03:43:48;;;;;;;16.63;12.10;;;;;;;;;;5030952;28;20037;-66
2022/07/21 03:46:14;;;;;;;15.82;12.48;;;;;;;;;;5033751;28;20040;-66
2022/07/21 03:48:40;;;;;;;16.65;13.70;;;;;;;;;;5040592;28;20033;-66
2022/07/21 03:51:06;;;;;;;17.70;13.65;;;;;;;;;;5041392;28;20045;-66
2022/07/21 03:53:33;;;;;;;18.77;13.35;;;;;;;;;;5027354;28;20503;-66
2022/07/21 03:55:59;;;;;;;18.10;12.80;;;;;;;;;;5011901;28;20044;-65
2022/07/21 03:58:25;;;;;;;17.13;13.68;;;;;;;;;;5029347;28;20482;-65
2022/07/21 04:00:51;;;;;;;20.77;15.70;;;;;;;;;;5028440;28;20069;-65
2022/07/21 04:03:17;;;;;;;21.40;16.42;;;;;;;;;;5031358;28;20076;-66
2022/07/21 04:05:43;;;;;;;21.27;16.88;;;;;;;;;;5034999;28;20033;-65
2022/07/21 04:08:10;;;;;;;22.90;16.05;;;;;;;;;;5041043;28;20098;-65
2022/07/21 04:10:38;;;;;;;23.45;18.08;;;;;;;;;;5029084;28;20051;-65
2022/07/21 04:13:06;;;;;;;21.52;17.58;;;;;;;;;;5031056;28;20038;-65
2022/07/21 04:15:32;;;;;;;23.15;17.17;;;;;;;;;;5025872;28;20491;-65
2022/07/21 04:17:58;;;;;;;23.17;18.30;;;;;;;;;;5029518;28;20083;-65
2022/07/21 04:20:24;;;;;;;25.13;19.25;;;;;;;;;;5029551;28;20411;-65
2022/07/21 04:22:51;;;;;;;23.92;18.92;;;;;;;;;;5029283;28;20033;-65
2022/07/21 04:25:17;;;;;;;25.52;19.17;;;;;;;;;;5039552;28;20029;-65
2022/07/21 04:27:44;;;;;;;28.85;19.77;;;;;;;;;;5030979;28;20037;-65
2022/07/21 04:30:11;;;;;;;23.92;19.17;;;;;;;;;;5025505;28;20052;-65
2022/07/21 04:32:37;;;;;;;24.00;19.63;;;;;;;;;;5031050;28;20041;-64
2022/07/21 04:35:05;;;;;;;24.40;19.27;;;;;;;;;;5037733;28;20045;-64
2022/07/21 04:37:31;;;;;;;24.98;18.80;;;;;;;;;;5037644;28;20046;-65
2022/07/21 04:39:57;;;;;;;23.58;18.98;;;;;;;;;;5026111;28;20041;-64
2022/07/21 04:42:23;;;;;;;28.58;19.83;;;;;;;;;;5041989;28;20068;-64
2022/07/21 04:44:49;;;;;;;26.48;19.98;;;;;;;;;;5033845;28;20464;-64
2022/07/21 04:47:15;;;;;;;27.63;20.35;;;;;;;;;;5033216;28;20030;-64
2022/07/21 04:49:44;;;;;;;25.85;20.52;;;;;;;;;;5026121;28;20069;-64
2022/07/21 04:52:10;;;;;;;27.00;20.75;;;;;;;;;;5023611;28;20042;-64
2022/07/21 04:54:36;;;;;;;25.17;20.02;;;;;;;;;;5025923;28;20498;-65
2022/07/21 04:57:04;;;;;;;28.52;20.35;;;;;;;;;;5031617;28;20033;-64
2022/07/21 04:59:30;;;;;;;30.20;22.52;;;;;;;;;;5038089;28;20138;-65
2022/07/21 05:01:56;;;;;;;26.67;21.35;;;;;;;;;;5031604;28;20091;-65
2022/07/21 05:04:22;;;;;;;27.13;22.48;;;;;;;;;;5051799;28;20515;-65
2022/07/21 05:06:48;;;;;;;28.55;22.63;;;;;;;;;;5039745;28;20515;-65
2022/07/21 05:09:14;;;;;;;27.58;21.45;;;;;;;;;;5032213;28;20124;-65
2022/07/21 05:11:40;;;;;;;27.90;22.88;;;;;;;;;;5032686;28;20247;-65
2022/07/21 05:14:06;;;;;;;30.38;23.13;;;;;;;;;;5031783;28;20037;-65
2022/07/21 05:16:32;;;;;;;29.75;23.30;;;;;;;;;;5032736;28;20052;-64
2022/07/21 05:18:58;;;;;;;29.15;23.13;;;;;;;;;;5032198;28;20049;-65
2022/07/21 05:21:24;;;;;;;31.30;23.23;;;;;;;;;;5031674;28;20511;-65
2022/07/21 05:23:50;;;;;;;30.52;23.58;;;;;;;;;;5032681;28;20033;-64
2022/07/21 05:26:16;;;;;;;31.02;23.42;;;;;;;;;;5032373;28;20108;-64
2022/07/21 05:28:43;;;;;;;32.30;24.80;;;;;;;;;;5030567;28;20124;-65
2022/07/21 05:31:09;;;;;;;31.52;24.55;;;;;;;;;;5032642;28;20076;-65
2022/07/21 05:33:36;;;;;;;29.77;22.20;;;;;;;;;;5032138;28;20099;-64
2022/07/21 05:36:02;;;;;;;32.47;24.20;;;;;;;;;;5031385;28;20045;-64
2022/07/21 05:38:28;;;;;;;30.70;23.27;;;;;;;;;;5032352;28;20124;-64
2022/07/21 05:40:54;;;;;;;29.50;23.10;;;;;;;;;;5030512;28;20481;-64
2022/07/21 05:43:20;;;;;;;28.75;22.48;;;;;;;;;;5032143;28;20035;-64
2022/07/21 05:45:46;;;;;;;31.45;24.35;;;;;;;;;;5031934;28;20561;-65
2022/07/21 05:48:12;;;;;;;26.75;21.67;;;;;;;;;;5031298;28;20041;-64
2022/07/21 05:50:38;;;;;;;32.47;22.60;;;;;;;;;;5031525;28;20092;-65
2022/07/21 05:53:04;;;;;;;25.95;21.05;;;;;;;;;;5032242;28;20091;-64
2022/07/21 05:55:30;;;;;;;27.73;21.27;;;;;;;;;;5032103;28;20124;-65
2022/07/21 05:57:56;;;;;;;27.15;21.15;;;;;;;;;;5029546;28;20045;-65
2022/07/21 06:00:22;;;;;;;25.42;20.13;;;;;;;;;;5031809;28;20053;-65
2022/07/21 06:02:50;;;;;;;27.23;20.23;;;;;;;;;;5030011;28;20043;-64
2022/07/21 06:05:16;;;;;;;27.02;20.15;;;;;;;;;;5014206;28;20094;-64
2022/07/21 06:07:42;;;;;;;23.13;19.58;;;;;;;;;;5031763;28;20038;-65
2022/07/21 06:10:09;;;;;;;26.02;20.17;;;;;;;;;;5029982;28;20049;-64
2022/07/21 06:12:35;;;;;;;26.08;20.98;;;;;;;;;;5031623;28;20124;-64
2022/07/21 06:15:01;;;;;;;27.25;20.98;;;;;;;;;;5030556;28;20037;-64
2022/07/21 06:17:31;;;;;;;27.35;20.70;;;;;;;;;;5031043;28;20068;-64
2022/07/21 06:19:58;;;;;;;27.50;20.85;;;;;;;;;;5031364;28;20119;-65
2022/07/21 06:22:24;;;;;;;28.25;20.45;;;;;;;;;;5031400;28;20041;-64
2022/07/21 06:24:50;;;;;;;27.67;21.42;;;;;;;;;;5030861;28;20038;-64
2022/07/21 06:27:16;;;;;;;28.73;20.88;;;;;;;;;;5031058;28;20112;-64
2022/07/21 06:29:42;;;;;;;27.88;21.38;;;;;;;;;;5029717;28;20043;-64
2022/07/21 06:32:08;;;;;;;30.13;22.13;;;;;;;;;;5031044;28;20403;-64
2022/07/21 06:34:34;;;;;;;26.65;21.00;;;;;;;;;;5031899;28;20042;-64
2022/07/21 06:37:00;;;;;;;29.70;22.25;;;;;;;;;;5031350;28;20042;-64
2022/07/21 06:39:26;;;;;;;29.77;22.00;;;;;;;;;;5030295;28;20053;-64
2022/07/21 06:41:52;;;;;;;31.58;22.88;;;;;;;;;;5030476;28;20029;-64
2022/07/21 06:44:18;;;;;;;31.17;21.40;;;;;;;;;;5030805;28;20108;-64
2022/07/21 06:46:44;;;;;;;27.73;22.08;;;;;;;;;;5029743;28;20133;-64
2022/07/21 06:49:10;;;;;;;28.15;22.63;;;;;;;;;;5026976;28;20037;-64
2022/07/21 06:51:36;;;;;;;29.55;22.33;;;;;;;;;;5029822;28;20041;-64
2022/07/21 06:54:02;;;;;;;29.88;22.63;;;;;;;;;;5031442;28;20079;-65
2022/07/21 06:56:28;;;;;;;29.77;23.67;;;;;;;;;;5029256;28;20069;-65
2022/07/21 06:58:54;;;;;;;33.70;24.83;;;;;;;;;;5030785;28;20492;-65
2022/07/21 07:01:20;;;;;;;33.08;23.17;;;;;;;;;;5035345;28;20044;-65
2022/07/21 07:03:46;;;;;;;31.40;24.63;;;;;;;;;;5035278;28;20419;-64
2022/07/21 07:06:12;;;;;;;35.47;25.85;;;;;;;;;;5033449;28;20033;-64
2022/07/21 07:08:39;;;;;;;32.70;25.02;;;;;;;;;;5034710;28;20084;-65
2022/07/21 07:11:05;;;;;;;31.92;25.17;;;;;;;;;;5032957;28;20037;-65
2022/07/21 07:13:31;;;;;;;34.85;26.00;;;;;;;;;;5034814;28;20048;-65
2022/07/21 07:15:57;;;;;;;32.20;25.33;;;;;;;;;;5035371;28;20042;-65
2022/07/21 07:18:24;;;;;;;34.45;25.50;;;;;;;;;;5034631;28;20519;-65
2022/07/21 07:20:51;;;;;;;31.35;25.33;;;;;;;;;;5032356;28;20045;-65
2022/07/21 07:23:17;;;;;;;31.67;24.88;;;;;;;;;;5033383;28;20041;-65
2022/07/21 07:25:43;;;;;;;31.20;24.60;;;;;;;;;;5034355;28;20041;-65
2022/07/21 07:28:09;;;;;;;32.70;24.70;;;;;;;;;;5034867;28;20042;-65
2022/07/21 07:30:35;;;;;;;33.63;25.88;;;;;;;;;;5034593;28;20400;-65
2022/07/21 07:33:02;;;;;;;34.78;26.67;;;;;;;;;;5034424;28;20044;-64
2022/07/21 07:35:28;;;;;;;35.33;27.08;;;;;;;;;;5033478;28;20557;-65
2022/07/21 07:37:54;;;;;;;33.47;25.27;;;;;;;;;;5033352;28;20116;-65
2022/07/21 07:40:21;;;;;;;34.40;25.70;;;;;;;;;;5033767;28;20091;-65
2022/07/21 07:42:47;;;;;;;36.33;28.13;;;;;;;;;;5034494;28;20045;-65
2022/07/21 07:45:14;;;;;;;39.35;28.00;;;;;;;;;;5034828;28;20121;-65
2022/07/21 07:47:40;;;;;;;34.58;24.75;;;;;;;;;;5034737;28;20045;-65
2022/07/21 07:50:08;;;;;;;35.60;26.60;;;;;;;;;;5024484;28;20121;-65
2022/07/21 07:52:34;;;;;;;33.10;25.70;;;;;;;;;;5031187;28;20117;-64
2022/07/21 07:55:03;;;;;;;33.60;25.45;;;;;;;;;;5033906;28;20128;-64
2022/07/21 07:57:30;;;;;;;32.92;24.23;;;;;;;;;;5053065;28;20047;-63
2022/07/21 07:59:56;;;;;;;31.90;24.52;;;;;;;;;;5046888;28;20068;-64
2022/07/21 08:02:22;;;;;;;31.70;25.30;;;;;;;;;;5042652;28;20050;-64
2022/07/21 08:04:48;;;;;;;32.63;24.63;;;;;;;;;;5015159;28;20048;-64
2022/07/21 08:07:14;;;;;;;29.77;24.05;;;;;;;;;;5025458;28;20369;-64
2022/07/21 08:09:40;;;;;;;31.40;24.45;;;;;;;;;;5031788;28;20042;-64
2022/07/21 08:12:06;;;;;;;32.08;24.45;;;;;;;;;;5014287;28;20064;-64
2022/07/21 08:14:32;;;;;;;29.98;24.45;;;;;;;;;;5019650;28;20175;-64
2022/07/21 08:16:59;;;;;;;29.55;23.65;;;;;;;;;;5039278;28;20041;-64
2022/07/21 08:19:26;;;;;;;28.27;22.55;;;;;;;;;;5011231;28;20053;-64
2022/07/21 08:21:52;;;;;;;26.98;21.60;;;;;;;;;;5030350;28;20164;-64
2022/07/21 08:24:18;;;;;;;27.45;22.63;;;;;;;;;;5033239;28;20083;-64
2022/07/21 08:26:45;;;;;;;26.13;21.23;;;;;;;;;;5033095;28;20044;-64
2022/07/21 08:29:11;;;;;;;31.83;22.02;;;;;;;;;;5033366;28;20053;-64
2022/07/21 08:31:37;;;;;;;31.73;23.80;;;;;;;;;;5033297;28;20049;-64
2022/07/21 08:34:03;;;;;;;29.92;23.35;;;;;;;;;;5056985;22;20045;-64
2022/07/21 08:36:29;;;;;;;29.38;23.65;;;;;;;;;;5035469;28;20040;-64
2022/07/21 08:38:55;;;;;;;27.90;22.25;;;;;;;;;;5050179;28;20047;-64
2022/07/21 08:41:21;;;;;;;28.25;21.58;;;;;;;;;;5051026;28;20473;-64
2022/07/21 08:43:49;;;;;;;27.08;21.42;;;;;;;;;;5033713;28;20033;-64
2022/07/21 08:46:16;;;;;;;26.83;21.30;;;;;;;;;;5032053;28;20045;-64
2022/07/21 08:48:42;;;;;;;30.17;22.17;;;;;;;;;;5028080;28;20041;-64
2022/07/21 08:51:08;;;;;;;28.00;22.27;;;;;;;;;;5014169;28;20045;-64
2022/07/21 08:53:34;;;;;;;27.70;21.65;;;;;;;;;;5027419;28;20043;-64
2022/07/21 08:56:01;;;;;;;27.60;22.67;;;;;;;;;;5031233;28;20041;-64
2022/07/21 08:58:27;;;;;;;29.38;22.95;;;;;;;;;;5032878;28;20111;-64
2022/07/21 09:00:54;;;;;;;30.10;22.85;;;;;;;;;;5031297;28;20034;-64
2022/07/21 09:03:27;;;;;;;28.65;21.38;;;;;;;;;;5011745;28;20124;-64
2022/07/21 09:06:07;;;;;;;27.10;21.88;;;;;;;;;;5031877;28;20041;-64
2022/07/21 09:08:44;;;;;;;28.73;23.02;;;;;;;;;;5028961;28;20124;-64
2022/07/21 09:11:10;;;;;;;29.65;22.67;;;;;;;;;;5030074;28;20491;-64
2022/07/21 09:13:36;;;;;;;28.33;22.45;;;;;;;;;;5024608;28;20037;-64
2022/07/21 09:16:02;;;;;;;27.02;21.25;;;;;;;;;;5011120;28;20045;-63
2022/07/21 09:18:28;;;;;;;28.75;22.20;;;;;;;;;;5007710;28;20103;-63
2022/07/21 09:20:54;;;;;;;30.73;22.23;;;;;;;;;;5031382;28;20037;-64
2022/07/21 09:23:22;;;;;;;27.85;20.67;;;;;;;;;;5031043;28;20077;-64
2022/07/21 09:25:51;;;;;;;28.55;22.15;;;;;;;;;;5026088;28;20112;-64
2022/07/21 09:28:21;;;;;;;32.63;23.25;;;;;;;;;;5031373;28;20043;-64
2022/07/21 09:30:50;;;;;;;29.45;21.77;;;;;;;;;;5026442;28;20047;-63
2022/07/21 09:33:34;;;;;;;26.38;20.90;;;;;;;;;;5026818;28;20034;-64
2022/07/21 09:36:01;;;;;;;30.58;20.58;;;;;;;;;;5031514;28;20037;-64
2022/07/21 09:38:28;;;;;;;27.13;20.45;;;;;;;;;;5020321;28;20065;-63
2022/07/21 09:40:56;;;;;;;26.48;19.80;;;;;;;;;;5029720;28;20037;-64
2022/07/21 09:43:31;;;;;;;25.25;19.42;;;;;;;;;;5027134;28;20557;-64
2022/07/21 09:46:00;;;;;;;26.52;19.55;;;;;;;;;;5031683;28;20459;-64
2022/07/21 09:48:29;;;;;;;30.55;20.77;;;;;;;;;;5030678;28;20108;-64
2022/07/21 09:50:55;;;;;;;29.88;21.48;;;;;;;;;;5031065;28;20041;-63
2022/07/21 09:53:21;;;;;;;30.65;21.40;;;;;;;;;;5028636;28;20038;-63
2022/07/21 09:55:47;;;;;;;29.40;21.23;;;;;;;;;;5027987;28;20404;-63
2022/07/21 09:58:14;;;;;;;29.10;22.40;;;;;;;;;;5029813;28;20175;-64
2022/07/21 10:00:42;;;;;;;30.45;22.60;;;;;;;;;;5029135;28;20135;-64
2022/07/21 10:03:08;;;;;;;31.42;22.35;;;;;;;;;;5022038;28;20159;-63
2022/07/21 10:05:34;;;;;;;30.55;22.77;;;;;;;;;;5027409;28;20099;-64
2022/07/21 10:08:02;;;;;;;35.22;24.70;;;;;;;;;;5026291;28;20071;-64
2022/07/21 10:10:28;;;;;;;35.25;24.60;;;;;;;;;;5008092;28;20108;-64
2022/07/21 10:12:54;;;;;;;37.78;26.38;;;;;;;;;;5026973;28;20088;-64
2022/07/21 10:15:21;;;;;;;34.97;25.42;;;;;;;;;;5021104;28;20040;-65
2022/07/21 10:17:49;;;;;;;38.08;26.63;;;;;;;;;;5020944;28;20041;-66
2022/07/21 10:20:26;;;;;;;38.00;25.33;;;;;;;;;;5022968;28;20590;-65
2022/07/21 10:22:59;;;;;;;37.95;26.58;;;;;;;;;;5026641;28;20538;-66
2022/07/21 10:25:25;;;;;;;37.25;25.55;;;;;;;;;;5030470;28;20569;-66
2022/07/21 10:28:10;;;;;;;39.90;27.05;;;;;;;;;;5028009;28;20034;-66
2022/07/21 10:30:50;;;;;;;39.50;27.27;;;;;;;;;;5029088;28;20059;-66
2022/07/21 10:33:18;;;;;;;34.77;25.47;;;;;;;;;;5029033;28;20038;-66
2022/07/21 10:35:45;;;;;;;39.30;27.90;;;;;;;;;;5025414;28;20049;-66
2022/07/21 10:38:40;;;;;;;41.03;28.48;;;;;;;;;;5007996;28;20053;-66
2022/07/21 10:41:06;;;;;;;41.80;27.45;;;;;;;;;;5006747;28;20061;-66
2022/07/21 10:43:36;;;;;;;42.05;28.05;;;;;;;;;;5028618;28;20491;-66
2022/07/21 10:46:02;;;;;;;36.63;27.27;;;;;;;;;;5028376;28;20116;-66
2022/07/21 10:48:39;;;;;;;38.50;26.90;;;;;;;;;;5029527;28;20126;-66
2022/07/21 10:51:09;;;;;;;41.38;26.70;;;;;;;;;;5025663;28;22267;-66
2022/07/21 10:53:36;;;;;;;34.63;26.23;;;;;;;;;;5028365;28;20072;-66
2022/07/21 10:56:02;;;;;;;39.33;26.48;;;;;;;;;;5013476;28;20037;-66
2022/07/21 10:58:38;;;;;;;38.05;25.73;;;;;;;;;;5028810;28;20060;-65
2022/07/21 11:01:04;;;;;;;34.22;24.50;;;;;;;;;;5028673;28;20407;-65
2022/07/21 11:03:31;;;;;;;35.55;23.75;;;;;;;;;;5027925;28;20037;-66
2022/07/21 11:06:09;;;;;;;37.72;25.25;;;;;;;;;;5027408;28;20038;-66
2022/07/21 11:08:41;;;;;;;33.53;23.17;;;;;;;;;;5027566;28;20116;-65
2022/07/21 11:11:10;;;;;;;34.53;23.85;;;;;;;;;;5028286;28;20041;-65
2022/07/21 11:13:54;;;;;;;29.75;22.77;;;;;;;;;;5029353;28;20091;-66
2022/07/21 11:16:20;;;;;;;31.85;23.63;;;;;;;;;;5029972;28;20065;-66
2022/07/21 11:18:46;;;;;;;32.67;23.60;;;;;;;;;;5029195;28;20072;-66
2022/07/21 11:21:14;;;;;;;34.33;24.80;;;;;;;;;;5030988;28;20132;-66
2022/07/21 11:23:47;;;;;;;30.13;22.20;;;;;;;;;;5029985;28;20029;-66
2022/07/21 11:26:16;;;;;;;30.90;23.90;;;;;;;;;;5028605;28;20159;-66
2022/07/21 11:28:43;;;;;;;32.75;23.75;;;;;;;;;;5030899;28;20425;-66
2022/07/21 11:31:10;;;;;;;33.95;26.30;;;;;;;;;;5030710;28;20335;-66
2022/07/21 11:33:38;;;;;;;35.90;27.05;;;;;;;;;;5030576;28;20041;-66
2022/07/21 11:36:04;;;;;;;35.05;26.00;;;;;;;;;;5029992;28;20040;-66
2022/07/21 11:38:31;;;;;;;37.15;26.25;;;;;;;;;;5027949;28;20043;-66
2022/07/21 11:41:27;;;;;;;34.47;25.83;;;;;;;;;;5012397;28;20044;-66
2022/07/21 11:43:53;;;;;;;35.13;26.25;;;;;;;;;;4995123;28;20466;-66
2022/07/21 11:46:19;;;;;;;34.88;25.75;;;;;;;;;;5031411;28;20038;-66
2022/07/21 11:48:45;;;;;;;33.38;25.02;;;;;;;;;;5031770;28;20403;-66
2022/07/21 11:51:12;;;;;;;33.67;25.83;;;;;;;;;;5029850;28;20514;-66
2022/07/21 11:53:43;;;;;;;39.78;27.13;;;;;;;;;;5033069;28;20429;-66
2022/07/21 11:56:16;;;;;;;36.80;27.77;;;;;;;;;;5015273;28;20120;-66
2022/07/21 11:58:43;;;;;;;36.05;26.33;;;;;;;;;;5024028;28;20041;-67
2022/07/21 12:01:09;;;;;;;37.92;27.00;;;;;;;;;;5032521;28;20037;-68
2022/07/21 12:03:35;;;;;;;35.60;27.00;;;;;;;;;;5010404;28;20037;-68
2022/07/21 12:06:02;;;;;;;37.55;25.92;;;;;;;;;;5032387;28;20037;-68
2022/07/21 12:08:29;;;;;;;35.15;25.65;;;;;;;;;;5031943;28;20168;-68
2022/07/21 12:11:06;;;;;;;40.05;27.85;;;;;;;;;;5033503;28;20091;-68
2022/07/21 12:13:51;;;;;;;37.05;26.17;;;;;;;;;;5031125;28;20040;-68
2022/07/21 12:16:17;;;;;;;30.38;23.20;;;;;;;;;;5025637;28;20038;-68
2022/07/21 12:18:43;;;;;;;25.98;19.63;;;;;;;;;;5031994;28;20384;-67
2022/07/21 12:21:09;;;;;;;25.00;18.25;;;;;;;;;;5031700;28;20042;-68
2022/07/21 12:23:35;;;;;;;22.85;17.92;;;;;;;;;;5031411;28;20045;-68
2022/07/21 12:26:02;;;;;;;21.23;16.33;;;;;;;;;;5032153;28;20395;-68
2022/07/21 12:28:44;;;;;;;22.67;17.02;;;;;;;;;;5013677;28;20045;-68
2022/07/21 12:31:11;;;;;;;24.35;18.40;;;;;;;;;;5028346;28;20117;-68
2022/07/21 12:33:37;;;;;;;17.48;11.98;;;;;;;;;;5021633;28;20353;-67
2022/07/21 12:36:05;;;;;;;13.88;10.68;;;;;;;;;;5027479;28;20728;-67
2022/07/21 12:38:38;;;;;;;12.60;9.75;;;;;;;;;;5031504;28;20099;-67
2022/07/21 12:41:04;;;;;;;10.10;8.05;;;;;;;;;;5032754;28;20037;-67
2022/07/21 12:43:30;;;;;;;12.15;9.90;;;;;;;;;;5028433;28;20045;-67
2022/07/21 12:45:58;;;;;;;13.23;10.10;;;;;;;;;;5030993;28;20251;-67
2022/07/21 12:48:27;;;;;;;13.02;10.02;;;;;;;;;;5023215;28;20041;-67
2022/07/21 12:51:23;;;;;;;14.10;10.75;;;;;;;;;;5032547;28;20037;-67
2022/07/21 12:53:51;;;;;;;17.45;12.75;;;;;;;;;;5008831;28;20045;-67
2022/07/21 12:56:21;;;;;;;19.45;13.95;;;;;;;;;;5030659;28;20448;-67
2022/07/21 12:58:47;;;;;;;20.80;15.48;;;;;;;;;;5026848;28;20402;-67
2022/07/21 13:01:14;;;;;;;19.70;14.27;;;;;;;;;;5030140;28;20073;-67
2022/07/21 13:03:40;;;;;;;19.75;14.48;;;;;;;;;;5031885;28;20064;-68
2022/07/21 13:06:06;;;;;;;20.85;15.48;;;;;;;;;;5031506;28;20038;-67
2022/07/21 13:08:33;;;;;;;19.10;15.00;;;;;;;;;;5032471;28;20488;-67
2022/07/21 13:10:59;;;;;;;19.70;14.68;;;;;;;;;;5030288;28;20507;-67
2022/07/21 13:13:26;;;;;;;20.60;14.80;;;;;;;;;;5032340;28;20099;-67
2022/07/21 13:15:52;;;;;;;16.52;12.40;;;;;;;;;;5030568;28;20124;-67
2022/07/21 13:18:18;;;;;;;13.30;10.32;;;;;;;;;;5027533;28;20041;-67
2022/07/21 13:20:44;;;;;;;13.68;9.98;;;;;;;;;;5027025;28;20041;-67
2022/07/21 13:23:12;;;;;;;13.63;10.10;;;;;;;;;;5029368;28;20042;-67
2022/07/21 13:25:38;;;;;;;15.00;10.15;;;;;;;;;;5031362;28;20522;-67
2022/07/21 13:28:04;;;;;;;14.60;10.50;;;;;;;;;;5024553;28;20044;-67
2022/07/21 13:30:30;;;;;;;15.48;11.70;;;;;;;;;;5011826;28;20049;-67
2022/07/21 13:32:56;;;;;;;16.02;11.10;;;;;;;;;;5007330;28;20056;-66
2022/07/21 13:35:22;;;;;;;15.38;10.93;;;;;;;;;;5027876;28;20129;-67
2022/07/21 13:37:48;;;;;;;13.60;10.05;;;;;;;;;;5028888;28;20120;-67
2022/07/21 13:40:14;;;;;;;14.70;10.43;;;;;;;;;;5028609;28;20041;-68
2022/07/21 13:42:40;;;;;;;14.80;10.43;;;;;;;;;;5022661;28;20561;-67
2022/07/21 13:45:08;;;;;;;13.82;10.70;;;;;;;;;;5028318;28;20491;-67
2022/07/21 13:47:34;;;;;;;14.80;10.80;;;;;;;;;;5029404;28;20095;-68
2022/07/21 13:50:00;;;;;;;14.43;10.77;;;;;;;;;;5024347;28;20045;-68
2022/07/21 13:52:26;;;;;;;15.73;10.93;;;;;;;;;;5026984;28;20545;-68
2022/07/21 13:54:52;;;;;;;15.68;11.80;;;;;;;;;;5001295;28;20048;-68
2022/07/21 13:57:18;;;;;;;15.68;11.98;;;;;;;;;;5022115;28;20106;-67
2022/07/21 13:59:44;;;;;;;16.35;11.45;;;;;;;;;;5025970;28;20411;-67
2022/07/21 14:02:10;;;;;;;14.68;11.88;;;;;;;;;;5012954;28;20044;-68
2022/07/21 14:04:36;;;;;;;13.75;10.15;;;;;;;;;;5025999;28;20515;-67
2022/07/21 14:07:02;;;;;;;11.32;8.90;;;;;;;;;;5010639;28;20153;-68
2022/07/21 14:09:29;;;;;;;10.05;8.18;;;;;;;;;;5029841;28;20041;-67
2022/07/21 14:11:56;;;;;;;8.52;7.40;;;;;;;;;;5024329;28;20045;-67
2022/07/21 14:14:25;;;;;;;8.02;6.75;;;;;;;;;;5023898;28;20519;-67
2022/07/21 14:16:53;;;;;;;8.75;7.45;;;;;;;;;;5023091;28;20539;-67
2022/07/21 14:19:19;;;;;;;10.85;7.88;;;;;;;;;;5028907;28;20556;-67
2022/07/21 14:21:45;;;;;;;8.20;7.05;;;;;;;;;;5029865;28;20037;-67